sensor_id;sensor_type;location;lat;lon;timestamp;P1;durP1;ratioP1;P2;durP2;ratioP2
19848;SDS011;10085;51.120;6.956;2023-06-01T00:04:20;4.20;;;2.13;;
19848;SDS011;10085;51.120;6.956;2023-06-01T00:09:22;2.90;;;2.00;;
19848;SDS011;10085;51.120;6.956;2023-06-01T00:14:25;4.07;;;1.92;;
19848;SDS011;10085;51.120;6.956;2023-06-01T00:19:29;3.60;;;2.35;;
19848;SDS011;10085;51.120;6.956;2023-06-01T00:24:32;3.55;;;2.20;;
19848;SDS011;10085;51.120;6.956;2023-06-01T00:29:35;3.83;;;2.25;;
19848;SDS011;10085;51.120;6.956;2023-06-01T00:34:39;5.63;;;2.42;;
19848;SDS011;10085;51.120;6.956;2023-06-01T00:39:42;5.22;;;2.50;;
19848;SDS011;10085;51.120;6.956;2023-06-01T00:44:45;4.68;;;2.15;;
19848;SDS011;10085;51.120;6.956;2023-06-01T00:49:49;3.50;;;2.13;;
19848;SDS011;10085;51.120;6.956;2023-06-01T00:54:52;3.65;;;2.38;;
19848;SDS011;10085;51.120;6.956;2023-06-01T00:59:55;7.18;;;2.33;;
19848;SDS011;10085;51.120;6.956;2023-06-01T01:04:59;3.80;;;2.25;;
19848;SDS011;10085;51.120;6.956;2023-06-01T01:10:03;3.33;;;2.08;;
19848;SDS011;10085;51.120;6.956;2023-06-01T01:15:12;4.25;;;2.08;;
19848;SDS011;10085;51.120;6.956;2023-06-01T01:20:21;2.97;;;2.03;;
19848;SDS011;10085;51.120;6.956;2023-06-01T01:25:30;5.13;;;2.20;;
19848;SDS011;10085;51.120;6.956;2023-06-01T01:30:43;6.40;;;2.53;;
19848;SDS011;10085;51.120;6.956;2023-06-01T01:35:46;6.13;;;2.30;;
19848;SDS011;10085;51.120;6.956;2023-06-01T01:40:49;6.43;;;2.33;;
19848;SDS011;10085;51.120;6.956;2023-06-01T01:45:57;5.57;;;2.40;;
19848;SDS011;10085;51.120;6.956;2023-06-01T01:51:10;4.95;;;2.20;;
19848;SDS011;10085;51.120;6.956;2023-06-01T01:56:16;4.05;;;2.20;;
19848;SDS011;10085;51.120;6.956;2023-06-01T02:01:22;5.30;;;2.20;;
19848;SDS011;10085;51.120;6.956;2023-06-01T02:06:25;4.60;;;2.20;;
19848;SDS011;10085;51.120;6.956;2023-06-01T02:11:27;4.50;;;2.20;;
19848;SDS011;10085;51.120;6.956;2023-06-01T02:16:32;5.25;;;2.10;;
19848;SDS011;10085;51.120;6.956;2023-06-01T02:21:35;4.35;;;2.50;;
19848;SDS011;10085;51.120;6.956;2023-06-01T02:26:39;5.03;;;2.28;;
19848;SDS011;10085;51.120;6.956;2023-06-01T02:31:43;3.30;;;2.40;;
19848;SDS011;10085;51.120;6.956;2023-06-01T02:36:46;4.22;;;2.10;;
19848;SDS011;10085;51.120;6.956;2023-06-01T02:41:50;4.97;;;2.20;;
19848;SDS011;10085;51.120;6.956;2023-06-01T02:46:55;7.40;;;2.45;;
19848;SDS011;10085;51.120;6.956;2023-06-01T02:51:58;3.47;;;2.30;;
19848;SDS011;10085;51.120;6.956;2023-06-01T02:57:01;4.53;;;2.38;;
19848;SDS011;10085;51.120;6.956;2023-06-01T03:02:13;6.22;;;2.40;;
19848;SDS011;10085;51.120;6.956;2023-06-01T03:07:15;5.25;;;2.58;;
19848;SDS011;10085;51.120;6.956;2023-06-01T03:12:24;4.15;;;2.58;;
19848;SDS011;10085;51.120;6.956;2023-06-01T03:17:28;6.07;;;2.88;;
19848;SDS011;10085;51.120;6.956;2023-06-01T03:22:31;4.18;;;2.60;;
19848;SDS011;10085;51.120;6.956;2023-06-01T03:27:34;5.85;;;2.70;;
19848;SDS011;10085;51.120;6.956;2023-06-01T03:32:38;6.32;;;3.00;;
19848;SDS011;10085;51.120;6.956;2023-06-01T03:37:43;4.63;;;2.40;;
19848;SDS011;10085;51.120;6.956;2023-06-01T03:42:49;5.57;;;2.92;;
19848;SDS011;10085;51.120;6.956;2023-06-01T03:47:55;8.25;;;3.92;;
19848;SDS011;10085;51.120;6.956;2023-06-01T03:52:58;8.02;;;3.47;;
19848;SDS011;10085;51.120;6.956;2023-06-01T03:58:00;5.68;;;3.10;;
19848;SDS011;10085;51.120;6.956;2023-06-01T04:03:05;7.68;;;3.08;;
19848;SDS011;10085;51.120;6.956;2023-06-01T04:08:09;7.30;;;3.53;;
19848;SDS011;10085;51.120;6.956;2023-06-01T04:13:12;7.00;;;3.83;;
19848;SDS011;10085;51.120;6.956;2023-06-01T04:18:16;8.02;;;4.13;;
19848;SDS011;10085;51.120;6.956;2023-06-01T04:23:30;6.60;;;3.38;;
19848;SDS011;10085;51.120;6.956;2023-06-01T04:28:33;8.88;;;4.30;;
19848;SDS011;10085;51.120;6.956;2023-06-01T04:33:37;6.55;;;4.40;;
19848;SDS011;10085;51.120;6.956;2023-06-01T04:38:42;7.55;;;4.57;;
19848;SDS011;10085;51.120;6.956;2023-06-01T04:43:44;11.93;;;6.50;;
19848;SDS011;10085;51.120;6.956;2023-06-01T04:48:54;8.10;;;5.13;;
19848;SDS011;10085;51.120;6.956;2023-06-01T04:53:59;8.10;;;5.03;;
19848;SDS011;10085;51.120;6.956;2023-06-01T04:59:02;9.38;;;5.80;;
19848;SDS011;10085;51.120;6.956;2023-06-01T05:04:07;10.38;;;5.70;;
19848;SDS011;10085;51.120;6.956;2023-06-01T05:09:11;10.23;;;5.57;;
19848;SDS011;10085;51.120;6.956;2023-06-01T05:14:15;9.57;;;6.18;;
19848;SDS011;10085;51.120;6.956;2023-06-01T05:19:19;9.70;;;5.72;;
19848;SDS011;10085;51.120;6.956;2023-06-01T05:24:23;12.38;;;6.47;;
19848;SDS011;10085;51.120;6.956;2023-06-01T05:29:26;12.57;;;6.95;;
19848;SDS011;10085;51.120;6.956;2023-06-01T05:34:30;8.70;;;6.30;;
19848;SDS011;10085;51.120;6.956;2023-06-01T05:39:33;13.18;;;6.38;;
19848;SDS011;10085;51.120;6.956;2023-06-01T05:44:36;10.35;;;6.55;;
19848;SDS011;10085;51.120;6.956;2023-06-01T05:49:40;9.50;;;6.63;;
19848;SDS011;10085;51.120;6.956;2023-06-01T05:54:43;11.00;;;6.47;;
19848;SDS011;10085;51.120;6.956;2023-06-01T05:59:50;10.13;;;6.70;;
19848;SDS011;10085;51.120;6.956;2023-06-01T06:04:56;11.85;;;6.53;;
19848;SDS011;10085;51.120;6.956;2023-06-01T06:09:59;10.18;;;6.80;;
19848;SDS011;10085;51.120;6.956;2023-06-01T06:15:01;11.18;;;6.55;;
19848;SDS011;10085;51.120;6.956;2023-06-01T06:20:07;12.35;;;7.50;;
19848;SDS011;10085;51.120;6.956;2023-06-01T06:25:11;12.57;;;7.32;;
19848;SDS011;10085;51.120;6.956;2023-06-01T06:30:14;10.30;;;6.43;;
19848;SDS011;10085;51.120;6.956;2023-06-01T06:35:18;10.95;;;7.30;;
19848;SDS011;10085;51.120;6.956;2023-06-01T06:40:21;10.88;;;6.97;;
19848;SDS011;10085;51.120;6.956;2023-06-01T06:45:24;10.88;;;6.93;;
19848;SDS011;10085;51.120;6.956;2023-06-01T06:50:28;10.27;;;6.55;;
19848;SDS011;10085;51.120;6.956;2023-06-01T06:55:31;9.90;;;6.68;;
19848;SDS011;10085;51.120;6.956;2023-06-01T07:00:33;11.15;;;6.85;;
19848;SDS011;10085;51.120;6.956;2023-06-01T07:05:38;10.75;;;6.45;;
19848;SDS011;10085;51.120;6.956;2023-06-01T07:10:41;11.35;;;6.60;;
19848;SDS011;10085;51.120;6.956;2023-06-01T07:15:43;9.98;;;6.13;;
19848;SDS011;10085;51.120;6.956;2023-06-01T07:20:47;8.27;;;5.63;;
19848;SDS011;10085;51.120;6.956;2023-06-01T07:25:50;9.48;;;5.90;;
19848;SDS011;10085;51.120;6.956;2023-06-01T07:30:53;9.98;;;5.97;;
19848;SDS011;10085;51.120;6.956;2023-06-01T07:35:57;8.90;;;5.57;;
19848;SDS011;10085;51.120;6.956;2023-06-01T07:41:00;9.20;;;6.05;;
19848;SDS011;10085;51.120;6.956;2023-06-01T07:46:03;8.88;;;6.07;;
19848;SDS011;10085;51.120;6.956;2023-06-01T07:51:07;10.30;;;6.13;;
19848;SDS011;10085;51.120;6.956;2023-06-01T07:56:10;10.57;;;6.25;;
19848;SDS011;10085;51.120;6.956;2023-06-01T08:01:13;9.32;;;5.75;;
19848;SDS011;10085;51.120;6.956;2023-06-01T08:06:17;10.35;;;6.40;;
19848;SDS011;10085;51.120;6.956;2023-06-01T08:11:19;9.77;;;6.13;;
19848;SDS011;10085;51.120;6.956;2023-06-01T08:16:24;9.20;;;6.03;;
19848;SDS011;10085;51.120;6.956;2023-06-01T08:21:29;10.10;;;6.03;;
19848;SDS011;10085;51.120;6.956;2023-06-01T08:26:33;10.05;;;5.88;;
19848;SDS011;10085;51.120;6.956;2023-06-01T08:31:36;9.45;;;6.30;;
19848;SDS011;10085;51.120;6.956;2023-06-01T08:36:41;9.63;;;6.45;;
19848;SDS011;10085;51.120;6.956;2023-06-01T08:41:45;13.27;;;6.82;;
19848;SDS011;10085;51.120;6.956;2023-06-01T08:46:54;10.50;;;6.20;;
19848;SDS011;10085;51.120;6.956;2023-06-01T08:51:59;10.90;;;6.47;;
19848;SDS011;10085;51.120;6.956;2023-06-01T08:57:03;11.13;;;6.43;;
19848;SDS011;10085;51.120;6.956;2023-06-01T09:02:08;13.48;;;7.82;;
19848;SDS011;10085;51.120;6.956;2023-06-01T09:07:14;11.90;;;7.50;;
19848;SDS011;10085;51.120;6.956;2023-06-01T09:12:18;14.00;;;8.38;;
19848;SDS011;10085;51.120;6.956;2023-06-01T09:17:23;14.88;;;9.05;;
19848;SDS011;10085;51.120;6.956;2023-06-01T09:22:29;13.63;;;9.27;;
19848;SDS011;10085;51.120;6.956;2023-06-01T09:27:42;15.52;;;9.77;;
19848;SDS011;10085;51.120;6.956;2023-06-01T09:32:46;16.73;;;10.32;;
19848;SDS011;10085;51.120;6.956;2023-06-01T09:37:56;19.63;;;10.77;;
19848;SDS011;10085;51.120;6.956;2023-06-01T09:42:59;16.45;;;10.90;;
19848;SDS011;10085;51.120;6.956;2023-06-01T09:48:15;18.50;;;11.25;;
19848;SDS011;10085;51.120;6.956;2023-06-01T09:53:20;20.13;;;11.77;;
19848;SDS011;10085;51.120;6.956;2023-06-01T09:58:23;20.30;;;11.60;;
19848;SDS011;10085;51.120;6.956;2023-06-01T10:03:26;18.58;;;11.10;;
19848;SDS011;10085;51.120;6.956;2023-06-01T10:08:30;18.85;;;10.90;;
19848;SDS011;10085;51.120;6.956;2023-06-01T10:13:34;17.42;;;9.68;;
19848;SDS011;10085;51.120;6.956;2023-06-01T10:18:37;17.13;;;10.02;;
19848;SDS011;10085;51.120;6.956;2023-06-01T10:23:42;14.65;;;8.80;;
19848;SDS011;10085;51.120;6.956;2023-06-01T10:28:45;15.73;;;8.05;;
19848;SDS011;10085;51.120;6.956;2023-06-01T10:33:52;12.93;;;7.85;;
19848;SDS011;10085;51.120;6.956;2023-06-01T10:44:45;11.98;;;7.07;;
19848;SDS011;10085;51.120;6.956;2023-06-01T10:50:07;12.07;;;6.90;;
19848;SDS011;10085;51.120;6.956;2023-06-01T10:55:21;13.60;;;6.95;;
19848;SDS011;10085;51.120;6.956;2023-06-01T11:00:27;12.10;;;6.25;;
19848;SDS011;10085;51.120;6.956;2023-06-01T11:05:38;9.18;;;5.72;;
19848;SDS011;10085;51.120;6.956;2023-06-01T11:10:56;9.73;;;6.15;;
19848;SDS011;10085;51.120;6.956;2023-06-01T11:21:36;9.05;;;5.35;;
19848;SDS011;10085;51.120;6.956;2023-06-01T11:26:42;8.90;;;5.50;;
19848;SDS011;10085;51.120;6.956;2023-06-01T11:31:47;8.35;;;5.45;;
19848;SDS011;10085;51.120;6.956;2023-06-01T11:36:50;10.50;;;5.68;;
19848;SDS011;10085;51.120;6.956;2023-06-01T11:42:04;11.25;;;5.70;;
19848;SDS011;10085;51.120;6.956;2023-06-01T11:47:08;9.85;;;5.90;;
19848;SDS011;10085;51.120;6.956;2023-06-01T11:52:12;11.55;;;6.10;;
19848;SDS011;10085;51.120;6.956;2023-06-01T11:57:16;10.95;;;5.75;;
19848;SDS011;10085;51.120;6.956;2023-06-01T12:02:21;11.43;;;5.60;;
19848;SDS011;10085;51.120;6.956;2023-06-01T12:07:26;9.55;;;5.15;;
19848;SDS011;10085;51.120;6.956;2023-06-01T12:12:30;11.45;;;5.75;;
19848;SDS011;10085;51.120;6.956;2023-06-01T12:17:47;11.93;;;6.05;;
19848;SDS011;10085;51.120;6.956;2023-06-01T12:22:54;10.13;;;5.75;;
19848;SDS011;10085;51.120;6.956;2023-06-01T12:28:02;10.35;;;5.57;;
19848;SDS011;10085;51.120;6.956;2023-06-01T12:33:05;9.98;;;6.20;;
19848;SDS011;10085;51.120;6.956;2023-06-01T12:38:08;12.00;;;6.60;;
19848;SDS011;10085;51.120;6.956;2023-06-01T12:43:19;10.82;;;6.20;;
19848;SDS011;10085;51.120;6.956;2023-06-01T12:48:31;11.32;;;6.05;;
19848;SDS011;10085;51.120;6.956;2023-06-01T12:53:35;14.82;;;7.30;;
19848;SDS011;10085;51.120;6.956;2023-06-01T12:58:39;14.32;;;7.28;;
19848;SDS011;10085;51.120;6.956;2023-06-01T13:03:42;12.48;;;6.97;;
19848;SDS011;10085;51.120;6.956;2023-06-01T13:08:45;12.13;;;6.30;;
19848;SDS011;10085;51.120;6.956;2023-06-01T13:13:49;13.40;;;7.38;;
19848;SDS011;10085;51.120;6.956;2023-06-01T13:18:52;18.23;;;7.95;;
19848;SDS011;10085;51.120;6.956;2023-06-01T13:23:55;15.20;;;7.28;;
19848;SDS011;10085;51.120;6.956;2023-06-01T13:28:59;13.13;;;6.82;;
19848;SDS011;10085;51.120;6.956;2023-06-01T13:34:03;12.70;;;7.13;;
19848;SDS011;10085;51.120;6.956;2023-06-01T13:39:06;14.98;;;7.30;;
19848;SDS011;10085;51.120;6.956;2023-06-01T13:44:11;13.90;;;7.15;;
19848;SDS011;10085;51.120;6.956;2023-06-01T13:49:13;11.77;;;6.47;;
19848;SDS011;10085;51.120;6.956;2023-06-01T13:54:16;10.85;;;6.30;;
19848;SDS011;10085;51.120;6.956;2023-06-01T13:59:20;12.63;;;6.60;;
19848;SDS011;10085;51.120;6.956;2023-06-01T14:04:23;10.35;;;5.95;;
19848;SDS011;10085;51.120;6.956;2023-06-01T14:09:27;10.98;;;5.60;;
19848;SDS011;10085;51.120;6.956;2023-06-01T14:14:31;9.77;;;5.70;;
19848;SDS011;10085;51.120;6.956;2023-06-01T14:19:34;12.02;;;5.88;;
19848;SDS011;10085;51.120;6.956;2023-06-01T14:24:37;11.25;;;6.05;;
19848;SDS011;10085;51.120;6.956;2023-06-01T14:29:41;11.40;;;5.53;;
19848;SDS011;10085;51.120;6.956;2023-06-01T14:34:45;9.77;;;5.05;;
19848;SDS011;10085;51.120;6.956;2023-06-01T14:39:47;11.13;;;5.43;;
19848;SDS011;10085;51.120;6.956;2023-06-01T14:44:52;7.57;;;5.00;;
19848;SDS011;10085;51.120;6.956;2023-06-01T14:50:07;9.20;;;5.35;;
19848;SDS011;10085;51.120;6.956;2023-06-01T14:55:10;8.13;;;4.22;;
19848;SDS011;10085;51.120;6.956;2023-06-01T15:00:17;9.05;;;4.70;;
19848;SDS011;10085;51.120;6.956;2023-06-01T15:05:20;8.55;;;4.85;;
19848;SDS011;10085;51.120;6.956;2023-06-01T15:10:23;9.45;;;4.78;;
19848;SDS011;10085;51.120;6.956;2023-06-01T15:15:27;8.52;;;4.82;;
19848;SDS011;10085;51.120;6.956;2023-06-01T15:20:30;11.77;;;5.50;;
19848;SDS011;10085;51.120;6.956;2023-06-01T15:25:33;8.77;;;5.00;;
19848;SDS011;10085;51.120;6.956;2023-06-01T15:30:37;15.20;;;5.50;;
19848;SDS011;10085;51.120;6.956;2023-06-01T15:35:40;9.02;;;5.05;;
19848;SDS011;10085;51.120;6.956;2023-06-01T15:40:43;8.57;;;5.22;;
19848;SDS011;10085;51.120;6.956;2023-06-01T15:45:49;8.90;;;4.80;;
19848;SDS011;10085;51.120;6.956;2023-06-01T15:50:52;11.68;;;4.97;;
19848;SDS011;10085;51.120;6.956;2023-06-01T15:55:54;8.38;;;4.65;;
19848;SDS011;10085;51.120;6.956;2023-06-01T16:00:58;6.53;;;4.20;;
19848;SDS011;10085;51.120;6.956;2023-06-01T16:06:13;8.95;;;4.40;;
19848;SDS011;10085;51.120;6.956;2023-06-01T16:11:15;6.47;;;4.57;;
19848;SDS011;10085;51.120;6.956;2023-06-01T16:16:20;10.38;;;5.10;;
19848;SDS011;10085;51.120;6.956;2023-06-01T16:21:23;9.20;;;4.97;;
19848;SDS011;10085;51.120;6.956;2023-06-01T16:26:26;8.30;;;4.57;;
19848;SDS011;10085;51.120;6.956;2023-06-01T16:31:30;8.90;;;4.80;;
19848;SDS011;10085;51.120;6.956;2023-06-01T16:36:33;9.35;;;4.70;;
19848;SDS011;10085;51.120;6.956;2023-06-01T16:41:36;7.50;;;4.55;;
19848;SDS011;10085;51.120;6.956;2023-06-01T16:46:40;10.63;;;5.10;;
19848;SDS011;10085;51.120;6.956;2023-06-01T16:51:43;6.68;;;4.60;;
19848;SDS011;10085;51.120;6.956;2023-06-01T16:56:46;7.03;;;4.13;;
19848;SDS011;10085;51.120;6.956;2023-06-01T17:01:50;10.52;;;4.57;;
19848;SDS011;10085;51.120;6.956;2023-06-01T17:06:53;8.23;;;4.63;;
19848;SDS011;10085;51.120;6.956;2023-06-01T17:11:56;7.97;;;4.45;;
19848;SDS011;10085;51.120;6.956;2023-06-01T17:17:00;10.45;;;4.70;;
19848;SDS011;10085;51.120;6.956;2023-06-01T17:22:03;5.75;;;3.95;;
19848;SDS011;10085;51.120;6.956;2023-06-01T17:27:06;9.00;;;4.63;;
19848;SDS011;10085;51.120;6.956;2023-06-01T17:32:10;7.40;;;4.55;;
19848;SDS011;10085;51.120;6.956;2023-06-01T17:37:13;8.82;;;4.10;;
19848;SDS011;10085;51.120;6.956;2023-06-01T17:42:16;6.55;;;3.90;;
19848;SDS011;10085;51.120;6.956;2023-06-01T17:47:20;7.25;;;4.15;;
19848;SDS011;10085;51.120;6.956;2023-06-01T17:52:22;5.53;;;3.83;;
19848;SDS011;10085;51.120;6.956;2023-06-01T17:57:25;5.30;;;3.60;;
19848;SDS011;10085;51.120;6.956;2023-06-01T18:02:30;6.68;;;3.75;;
19848;SDS011;10085;51.120;6.956;2023-06-01T18:07:32;6.15;;;3.92;;
19848;SDS011;10085;51.120;6.956;2023-06-01T18:12:35;6.68;;;3.63;;
19848;SDS011;10085;51.120;6.956;2023-06-01T18:17:39;8.88;;;3.80;;
19848;SDS011;10085;51.120;6.956;2023-06-01T18:22:42;6.00;;;3.50;;
19848;SDS011;10085;51.120;6.956;2023-06-01T18:27:44;7.10;;;4.00;;
19848;SDS011;10085;51.120;6.956;2023-06-01T18:32:49;5.85;;;3.72;;
19848;SDS011;10085;51.120;6.956;2023-06-01T18:37:51;8.30;;;3.70;;
19848;SDS011;10085;51.120;6.956;2023-06-01T18:42:54;5.60;;;3.92;;
19848;SDS011;10085;51.120;6.956;2023-06-01T18:47:58;7.68;;;4.00;;
19848;SDS011;10085;51.120;6.956;2023-06-01T18:53:01;12.13;;;5.63;;
19848;SDS011;10085;51.120;6.956;2023-06-01T18:58:04;13.60;;;6.00;;
19848;SDS011;10085;51.120;6.956;2023-06-01T19:03:08;23.42;;;8.27;;
19848;SDS011;10085;51.120;6.956;2023-06-01T19:08:14;20.67;;;6.82;;
19848;SDS011;10085;51.120;6.956;2023-06-01T19:13:21;12.50;;;5.50;;
19848;SDS011;10085;51.120;6.956;2023-06-01T19:18:26;10.10;;;4.88;;
19848;SDS011;10085;51.120;6.956;2023-06-01T19:23:29;10.73;;;4.25;;
19848;SDS011;10085;51.120;6.956;2023-06-01T19:28:32;6.88;;;3.70;;
19848;SDS011;10085;51.120;6.956;2023-06-01T19:33:36;6.50;;;3.65;;
19848;SDS011;10085;51.120;6.956;2023-06-01T19:38:39;6.72;;;3.53;;
19848;SDS011;10085;51.120;6.956;2023-06-01T19:43:42;5.35;;;3.50;;
19848;SDS011;10085;51.120;6.956;2023-06-01T19:48:50;7.97;;;3.40;;
19848;SDS011;10085;51.120;6.956;2023-06-01T19:53:53;5.03;;;3.08;;
19848;SDS011;10085;51.120;6.956;2023-06-01T19:58:56;4.43;;;2.92;;
19848;SDS011;10085;51.120;6.956;2023-06-01T20:04:00;5.20;;;3.13;;
19848;SDS011;10085;51.120;6.956;2023-06-01T20:09:05;5.80;;;2.80;;
19848;SDS011;10085;51.120;6.956;2023-06-01T20:14:09;7.10;;;2.90;;
19848;SDS011;10085;51.120;6.956;2023-06-01T20:19:15;4.35;;;3.15;;
19848;SDS011;10085;51.120;6.956;2023-06-01T20:24:21;4.22;;;3.08;;
19848;SDS011;10085;51.120;6.956;2023-06-01T20:29:24;4.82;;;3.00;;
19848;SDS011;10085;51.120;6.956;2023-06-01T20:34:30;5.40;;;3.40;;
19848;SDS011;10085;51.120;6.956;2023-06-01T20:39:34;6.30;;;3.00;;
19848;SDS011;10085;51.120;6.956;2023-06-01T20:44:36;3.75;;;3.10;;
19848;SDS011;10085;51.120;6.956;2023-06-01T20:49:41;4.57;;;3.00;;
19848;SDS011;10085;51.120;6.956;2023-06-01T20:54:43;4.78;;;3.30;;
19848;SDS011;10085;51.120;6.956;2023-06-01T20:59:46;6.15;;;3.40;;
19848;SDS011;10085;51.120;6.956;2023-06-01T21:04:50;4.60;;;3.03;;
19848;SDS011;10085;51.120;6.956;2023-06-01T21:09:53;6.45;;;3.40;;
19848;SDS011;10085;51.120;6.956;2023-06-01T21:14:56;4.93;;;3.60;;
19848;SDS011;10085;51.120;6.956;2023-06-01T21:20:00;5.03;;;3.55;;
19848;SDS011;10085;51.120;6.956;2023-06-01T21:25:03;7.18;;;3.50;;
19848;SDS011;10085;51.120;6.956;2023-06-01T21:30:06;8.00;;;3.70;;
19848;SDS011;10085;51.120;6.956;2023-06-01T21:35:11;5.30;;;3.55;;
19848;SDS011;10085;51.120;6.956;2023-06-01T21:40:14;4.97;;;3.50;;
19848;SDS011;10085;51.120;6.956;2023-06-01T21:45:17;6.68;;;3.85;;
19848;SDS011;10085;51.120;6.956;2023-06-01T21:50:21;4.90;;;3.70;;
19848;SDS011;10085;51.120;6.956;2023-06-01T21:55:24;6.40;;;3.80;;
19848;SDS011;10085;51.120;6.956;2023-06-01T22:00:27;5.63;;;3.40;;
19848;SDS011;10085;51.120;6.956;2023-06-01T22:05:31;5.60;;;3.50;;
19848;SDS011;10085;51.120;6.956;2023-06-01T22:10:34;7.82;;;3.53;;
19848;SDS011;10085;51.120;6.956;2023-06-01T22:15:37;8.27;;;3.65;;
19848;SDS011;10085;51.120;6.956;2023-06-01T22:20:41;5.88;;;3.47;;
19848;SDS011;10085;51.120;6.956;2023-06-01T22:25:43;7.20;;;3.83;;
19848;SDS011;10085;51.120;6.956;2023-06-01T22:30:46;6.28;;;3.58;;
19848;SDS011;10085;51.120;6.956;2023-06-01T22:35:50;5.95;;;3.33;;
19848;SDS011;10085;51.120;6.956;2023-06-01T22:40:53;5.63;;;3.25;;
19848;SDS011;10085;51.120;6.956;2023-06-01T22:45:56;5.97;;;3.28;;
19848;SDS011;10085;51.120;6.956;2023-06-01T22:51:00;4.63;;;3.10;;
19848;SDS011;10085;51.120;6.956;2023-06-01T22:56:03;6.95;;;3.25;;
19848;SDS011;10085;51.120;6.956;2023-06-01T23:01:08;6.20;;;3.00;;
19848;SDS011;10085;51.120;6.956;2023-06-01T23:06:14;4.43;;;2.97;;
19848;SDS011;10085;51.120;6.956;2023-06-01T23:11:17;6.10;;;3.00;;
19848;SDS011;10085;51.120;6.956;2023-06-01T23:16:20;5.43;;;3.22;;
19848;SDS011;10085;51.120;6.956;2023-06-01T23:21:27;5.78;;;3.00;;
19848;SDS011;10085;51.120;6.956;2023-06-01T23:26:35;5.47;;;2.83;;
19848;SDS011;10085;51.120;6.956;2023-06-01T23:31:38;5.82;;;3.05;;
19848;SDS011;10085;51.120;6.956;2023-06-01T23:36:42;4.75;;;2.75;;
19848;SDS011;10085;51.120;6.956;2023-06-01T23:41:46;4.07;;;2.45;;
19848;SDS011;10085;51.120;6.956;2023-06-01T23:46:49;5.60;;;2.70;;
19848;SDS011;10085;51.120;6.956;2023-06-01T23:51:53;7.07;;;3.05;;
19848;SDS011;10085;51.120;6.956;2023-06-01T23:56:55;5.70;;;2.90;;
